Portada
METAR-TAF:

METAR-TAF

Aeroports :

Aeroport Internacional Maiquetía Simón Bolívar

Caracas, Veneçuela

latitud: 10-36N, longitud: 066-59W, altitud: 43 m

Observació

L'informe es va fer fa 59 minuts, a les 04:00 UTC
Vent calma
Temperatura 24°C
Humitat 89%
Pressió 1011 hPa
Visibilitat 10 km o més
Núvols disperses a una alçada de 1700 ft

METAR: SVMI 180400Z 00000KT 9999 SCT017 24/22 Q1011

Hora: 00:59 (04:59 UTC)

Pronòstic

L'informe es va fer fa 12 hores i 59 minuts, a les 16:00 UTC
Pronòstic vàlid del 17 a les 18 UTC al 18 a les 18 UTC
Vent 3 kt del Est/Sud-Est
Visibilitat 10 km o més
Cel ennuvolat a una alçada de 1600 ft
Evolucionant progressivament
l' 17 a les 18 UTC al 17 a les 22 UTC
Vent 4 kt del Est
Visibilitat 10 km o més
Escasses núvols a una alçada de 1600 ft

TAF: SVMI 171600Z 1718/1818 11003KT 9999 BKN016 TX22/27Z TN24/24Z BECMG 1718/1722 09004KT 9999 FEW016

Observacions i pronòstics meteorològics de més de 4000 aeroports (METAR i TAF).

Les estacions disponibles són els punts grocs i vermells al mapa.

Posi el ratolí al punt desitjat per veure el nom de l'estació.

Feu clic per veure les observacions i els pronòstics meteorològics.

Per canviar el mapa: feu clic els botons verds amb una creu de color negre per apropar; al botó verd amb un guió per allunyar la imatge; o en les fletxes verdes per a mapes adjacents.


METAR-TAF: